• Join FlightAware (Why Join?)
  • Login
  • US Flag 
06:37PM EST


 

Airport Tracker/Info


-or-


 

Live Flight TrackerFlight Track Log ✈ N137TK ✈ 02-Jul-2013 ✈ KPTK - KAVL

Flight Track Log - Related Links

Times and Time Zones

All times are in EDT time to prevent confusion due to time zone crossing. See the N137TK flight status page for this flight to view local times or setup timezone preferences in your user account.

Time Position Orientation Groundspeed Altitude Reporting Facility
EDT Latitude Longitude Course Direction KTS MPH feet Rate Location/Type
11:01PM 42.6656 -83.3956 98° East 140 161 1,600  Level Cleveland Center
11:02PM 42.6622 -83.3644 98° East 142 163 2,900 1,920 Climbing Cleveland Center
11:03PM 42.6361 -83.3208 129° Southeast 152 175 4,800 1,920 Climbing Cleveland Center
11:04PM 42.6100 -83.2775 129° Southeast 158 182 6,600 1,980 Climbing Cleveland Center
11:05PM 42.5839 -83.2311 127° Southeast 158 182 8,600 1,860 Climbing Cleveland Center
11:06PM 42.5406 -83.2181 167° South 156 180 10,500 1,800 Climbing Cleveland Center
11:07PM 42.4986 -83.2219 184° South 156 180 12,400 1,620 Climbing Cleveland Center
11:08PM 42.4506 -83.2311 188° South 161 185 13,800 1,320 Climbing Cleveland Center
11:09PM 42.4067 -83.2350 184° South 177 204 15,100 1,500 Climbing Cleveland Center
11:10PM 42.3586 -83.2414 186° South 188 216 16,800 1,380 Climbing Cleveland Center
11:11PM 42.3064 -83.2506 187° South 174 200 17,900 1,140 Climbing Cleveland Center
11:12PM 42.2622 -83.2569 186° South 174 200 19,100 1,020 Climbing Cleveland Center
11:13PM 42.2142 -83.2633 186° South 174 200 20,000 420 Climbing Cleveland Center
11:14PM 42.1597 -83.2722 187° South 189 217 20,000  Level Cleveland Center
11:15PM 42.0992 -83.2808 186° South 214 246 20,000  Level Cleveland Center
11:16PM 42.0400 -83.3147 203° Southwest 226 260 20,000  Level Cleveland Center
11:17PM 41.9844 -83.3656 214° Southwest 235 270 20,000  Level Cleveland Center
11:18PM 41.9292 -83.4106 211° Southwest 242 278 20,000  Level Cleveland Center
11:19PM 41.8781 -83.4528 212° Southwest 242 278 20,000  Level Cleveland Center
11:20PM 41.8247 -83.5036 215° Southwest 242 278 20,000  Level Cleveland Center
11:21PM 41.7694 -83.5483 211° Southwest 242 278 20,000  Level Cleveland Center
11:22PM 41.7100 -83.5844 204° Southwest 242 278 20,000  Level Cleveland Center
11:23PM 41.6450 -83.6008 191° South 242 278 20,000  Level Cleveland Center
11:24PM 41.5808 -83.5869 171° South 234 269 20,000  Level Cleveland Center
11:25PM 41.5122 -83.5725 171° South 234 269 20,000  Level Cleveland Center
11:26PM 41.4481 -83.5611 172° South 239 275 20,000  Level Cleveland Center
11:27PM 41.3794 -83.5469 171° South 239 275 20,000  Level Cleveland Center
11:28PM 41.3131 -83.5383 174° South 244 281 20,000  Level Cleveland Center
11:29PM 41.2447 -83.5217 170° South 244 281 20,000  Level Cleveland Center
11:31PM 41.0847 -83.4928 172° South 246 283 20,000  Level Indianapolis Center
11:32PM 41.0178 -83.4800 172° South 242 278 20,000  Level Indianapolis Center
11:33PM 40.9494 -83.4678 172° South 245 282 20,000  Level Indianapolis Center
11:34PM 40.8814 -83.4561 173° South 245 282 20,000  Level Indianapolis Center
11:35PM 40.8036 -83.4414 172° South 242 278 20,000  Level Indianapolis Center
11:36PM 40.7347 -83.4314 174° South 246 283 20,000  Level Indianapolis Center
11:37PM 40.6669 -83.4186 172° South 245 282 20,000  Level Indianapolis Center
11:38PM 40.5981 -83.4050 171° South 246 283 20,000  Level Indianapolis Center
11:39PM 40.5283 -83.3936 173° South 249 287 20,000  Level Indianapolis Center
11:40PM 40.4589 -83.3808 172° South 249 287 20,000  Level Indianapolis Center
11:41PM 40.3900 -83.3683 172° South 249 287 20,000  Level Indianapolis Center
11:42PM 40.3206 -83.3558 172° South 249 287 20,000  Level Indianapolis Center
11:43PM 40.2514 -83.3439 172° South 249 287 20,000  Level Indianapolis Center
11:44PM 40.1831 -83.3306 172° South 246 283 20,000  Level Indianapolis Center
11:45PM 40.1136 -83.3189 173° South 247 284 20,000  Level Indianapolis Center
11:46PM 40.0442 -83.3067 172° South 249 287 20,000  Level Indianapolis Center
11:47PM 39.9756 -83.2933 172° South 246 283 20,000  Level Indianapolis Center
11:48PM 39.9056 -83.2819 173° South 248 285 20,000  Level Indianapolis Center
11:49PM 39.8364 -83.2689 172° South 247 284 20,000  Level Indianapolis Center
11:50PM 39.7664 -83.2572 173° South 248 285 20,000  Level Indianapolis Center
11:51PM 39.6969 -83.2456 173° South 248 285 20,000  Level Indianapolis Center
11:52PM 39.6269 -83.2331 172° South 251 289 20,000  Level Indianapolis Center
11:53PM 39.5572 -83.2211 172° South 249 287 20,000  Level Indianapolis Center
11:54PM 39.4881 -83.2092 172° South 249 287 20,000  Level Indianapolis Center
11:55PM 39.4200 -83.1972 172° South 245 282 20,000  Level Indianapolis Center
11:56PM 39.3514 -83.1847 172° South 246 283 20,000  Level Indianapolis Center
11:57PM 39.2825 -83.1739 173° South 246 283 20,000  Level Indianapolis Center
11:58PM 39.2133 -83.1608 172° South 249 287 20,000  Level Indianapolis Center
12:00AM 39.1406 -83.1494 173° South 244 281 20,000  Level Indianapolis Center
12:01AM 39.0717 -83.1369 172° South 248 285 20,000  Level Indianapolis Center
12:02AM 39.0031 -83.1244 172° South 250 288 20,000  Level Indianapolis Center
12:03AM 38.9336 -83.1131 173° South 250 288 20,000  Level Indianapolis Center
12:04AM 38.8642 -83.1017 173° South 251 289 20,000  Level Indianapolis Center
12:05AM 38.7958 -83.0892 172° South 250 288 20,000  Level Indianapolis Center
12:06AM 38.7267 -83.0769 172° South 251 289 20,000  Level Indianapolis Center
12:07AM 38.6586 -83.0658 173° South 247 284 20,000  Level Indianapolis Center
12:08AM 38.5850 -83.0533 172° South 248 285 20,000  Level Indianapolis Center
12:09AM 38.5164 -83.0414 172° South 247 284 20,000  Level Indianapolis Center
12:10AM 38.4481 -83.0300 173° South 248 285 20,000  Level Indianapolis Center
12:11AM 38.3803 -83.0194 173° South 246 283 20,000  Level Indianapolis Center
12:12AM 38.3117 -83.0069 172° South 248 285 20,000  Level Indianapolis Center
12:13AM 38.2439 -82.9953 172° South 246 283 20,000  Level Indianapolis Center
12:14AM 38.1756 -82.9836 172° South 247 284 20,000  Level Indianapolis Center
12:15AM 38.1075 -82.9736 173° South 247 284 20,000  Level Indianapolis Center
12:16AM 38.0394 -82.9617 172° South 246 283 20,000  Level Indianapolis Center
12:17AM 37.9719 -82.9514 173° South 244 281 20,000  Level Indianapolis Center
12:18AM 37.9042 -82.9397 172° South 244 281 20,000  Level Indianapolis Center
12:19AM 37.8242 -82.9253 172° South 248 285 20,000  Level Indianapolis Center
12:20AM 37.7561 -82.9147 173° South 246 283 20,000  Level Indianapolis Center
12:21AM 37.6889 -82.9022 172° South 245 282 20,000  Level Indianapolis Center
12:22AM 37.6206 -82.8919 173° South 246 283 20,000  Level Indianapolis Center
12:23AM 37.5519 -82.8811 173° South 247 284 20,000  Level Indianapolis Center
12:24AM 37.4844 -82.8700 173° South 245 282 20,000  Level Indianapolis Center
12:25AM 37.4156 -82.8594 173° South 247 284 20,000  Level Indianapolis Center
12:26AM 37.3472 -82.8475 172° South 247 284 20,000  Level Indianapolis Center
12:27AM 37.2792 -82.8367 173° South 246 283 20,000  Level Indianapolis Center
12:28AM 37.2106 -82.8250 172° South 247 284 20,000  Level Indianapolis Center
12:29AM 37.1408 -82.8136 173° South 250 288 20,000  Level Indianapolis Center
12:30AM 37.0719 -82.8022 172° South 249 287 20,000  Level Indianapolis Center
12:31AM 37.0025 -82.7903 172° South 249 287 20,000  Level Indianapolis Center
12:32AM 36.9314 -82.7789 173° South 251 289 20,000  Level Indianapolis Center
12:33AM 36.8600 -82.7669 172° South 253 291 20,000  Level Indianapolis Center
12:34AM 36.7892 -82.7558 173° South 254 292 20,000  Level Indianapolis Center
12:36AM 36.6858 -82.7409 173° South  Level FlightAware Approximate
12:43AM 36.2299 -82.6661 172° South  Level FlightAware Approximate
12:44AM 36.1648 -82.6552 172° South  Level FlightAware Approximate
12:45AM 36.0997 -82.6458 169° South  Level FlightAware Approximate
12:46AM 36.0353 -82.6296 169° South  Level FlightAware Approximate
12:47AM 35.9707 -82.6167 180° South  Level FlightAware Approximate
12:48AM 35.9054 -82.6092 172° South  Level FlightAware Approximate
12:49AM 35.8403 -82.5984 172° South  Level FlightAware Approximate
12:50AM 35.7752 -82.5875 172° South  Level FlightAware Approximate
12:51AM 35.7103 -82.5754 171° South  Level FlightAware Approximate
12:52AM 35.6454 -82.5624 171° South  Level FlightAware Approximate
12:53AM 35.5805 -82.5500 180° South  Level FlightAware Approximate
12:54AM 35.5148 -82.5500 180° South  Level FlightAware Approximate
12:55AM 35.4502 -82.5375 168° South  Level FlightAware Approximate
12:56AM 35.4333 -82.5333 168° South  Level FlightAware Approximate
12:57AM 35.4362 -82.5418 168° South  Level Estimated
12:58AM 35.4362 -82.5418 168° South  Level Estimated
12:59AM 35.4362 -82.5418 168° South  Level Estimated
01:00AM 35.4362 -82.5418 168° South  Level Estimated
01:01AM 35.4362 -82.5418 168° South  Level Estimated
01:02AM 35.4362 -82.5418 168° South  Level Estimated
01:03AM 35.4362 -82.5418 168° South  Level Estimated
01:04AM 35.4362 -82.5418 168° South  Level Estimated
01:05AM 35.4362 -82.5418 168° South  Level Estimated
01:06AM 35.4362 -82.5418 168° South  Level Estimated
01:07AM 35.4362 -82.5418 168° South  Level Estimated
01:08AM 35.4362 -82.5418 168° South  Level Estimated
01:09AM 35.4362 -82.5418 168° South  Level Estimated
01:10AM 35.4362 -82.5418 168° South  Level Estimated
01:11AM 35.4362 -82.5418 168° South  Level Estimated